Time;durP1;ratioP1;P1;durP2;ratioP2;P2;SDS_P1;SDS_P2;PMS_P1;PMS_P2;Temp;Humidity;BMP_temperature;BMP_pressure;BME280_temperature;BME280_humidity;BME280_pressure;Samples;Min_cycle;Max_cycle;Signal;HPM_P1;HPM_P2
2023/03/01 00:00:54;;;;;;;13.50;7.50;;;;;;;;;;5006995;28;20890;-69
2023/03/01 00:03:19;;;;;;;10.90;7.32;;;;;;;;;;5011231;28;20938;-69
2023/03/01 00:05:45;;;;;;;12.82;7.40;;;;;;;;;;5008013;28;20877;-68
2023/03/01 00:08:10;;;;;;;14.05;6.80;;;;;;;;;;5011083;28;20020;-68
2023/03/01 00:10:35;;;;;;;11.25;7.68;;;;;;;;;;5014535;28;20078;-69
2023/03/01 00:13:01;;;;;;;14.50;8.00;;;;;;;;;;5053572;28;20384;-69
2023/03/01 00:15:26;;;;;;;10.38;7.53;;;;;;;;;;5050324;28;20036;-69
2023/03/01 00:17:51;;;;;;;13.07;7.50;;;;;;;;;;5045570;28;20084;-69
2023/03/01 00:20:16;;;;;;;10.73;7.13;;;;;;;;;;5037265;28;20024;-69
2023/03/01 00:22:42;;;;;;;13.30;8.35;;;;;;;;;;5047731;28;20387;-67
2023/03/01 00:25:07;;;;;;;13.65;8.02;;;;;;;;;;5050977;28;20028;-69
2023/03/01 00:27:32;;;;;;;14.43;8.25;;;;;;;;;;5053282;28;20070;-68
2023/03/01 00:29:57;;;;;;;10.88;8.40;;;;;;;;;;5054186;28;20021;-68
2023/03/01 00:32:23;;;;;;;15.70;8.20;;;;;;;;;;5054307;28;20033;-68
2023/03/01 00:34:54;;;;;;;15.77;8.57;;;;;;;;;;5054146;28;20068;-68
2023/03/01 00:37:22;;;;;;;10.63;8.23;;;;;;;;;;5049079;28;20025;-68
2023/03/01 00:39:48;;;;;;;13.63;8.40;;;;;;;;;;5039950;28;20017;-68
2023/03/01 00:42:13;;;;;;;10.85;7.45;;;;;;;;;;5053908;28;20032;-68
2023/03/01 00:44:38;;;;;;;12.07;8.02;;;;;;;;;;5054268;28;20530;-67
2023/03/01 00:47:04;;;;;;;11.85;8.85;;;;;;;;;;5053610;28;20036;-67
2023/03/01 00:49:29;;;;;;;11.85;8.05;;;;;;;;;;5053306;28;20021;-67
2023/03/01 00:51:54;;;;;;;12.45;8.63;;;;;;;;;;5053160;28;20025;-67
2023/03/01 00:54:19;;;;;;;9.90;7.88;;;;;;;;;;5053672;28;20060;-67
2023/03/01 00:56:45;;;;;;;11.73;7.90;;;;;;;;;;5053758;28;20017;-67
2023/03/01 00:59:10;;;;;;;12.77;7.50;;;;;;;;;;5053509;28;20464;-67
2023/03/01 01:01:35;;;;;;;11.57;7.97;;;;;;;;;;5053808;28;20021;-67
2023/03/01 01:04:02;;;;;;;13.68;8.68;;;;;;;;;;5054288;28;20075;-67
2023/03/01 01:06:29;;;;;;;11.63;8.35;;;;;;;;;;5053221;28;20024;-67
2023/03/01 01:08:55;;;;;;;13.93;8.73;;;;;;;;;;5053793;28;20060;-67
2023/03/01 01:11:21;;;;;;;12.30;8.70;;;;;;;;;;5052879;28;20024;-67
2023/03/01 01:13:46;;;;;;;15.77;9.35;;;;;;;;;;5053660;28;20112;-67
2023/03/01 01:16:13;;;;;;;11.18;8.40;;;;;;;;;;5053423;28;20088;-67
2023/03/01 01:18:38;;;;;;;13.60;8.18;;;;;;;;;;5053778;28;20024;-67
2023/03/01 01:21:05;;;;;;;11.95;8.32;;;;;;;;;;4999743;28;20981;-67
2023/03/01 01:23:30;;;;;;;14.82;9.13;;;;;;;;;;5005869;28;20021;-67
2023/03/01 01:25:56;;;;;;;10.32;7.70;;;;;;;;;;5007218;28;20187;-67
2023/03/01 01:28:21;;;;;;;11.65;8.25;;;;;;;;;;5003098;28;20029;-67
2023/03/01 01:30:46;;;;;;;10.90;8.32;;;;;;;;;;5006071;28;20805;-67
2023/03/01 01:33:11;;;;;;;12.48;8.63;;;;;;;;;;5006614;28;20130;-67
2023/03/01 01:35:37;;;;;;;11.23;8.38;;;;;;;;;;5004075;28;20070;-67
2023/03/01 01:38:02;;;;;;;16.58;8.93;;;;;;;;;;5002437;28;20116;-67
2023/03/01 01:40:27;;;;;;;15.73;8.63;;;;;;;;;;5005494;28;20023;-67
2023/03/01 01:42:52;;;;;;;15.35;10.20;;;;;;;;;;5005575;28;20987;-67
2023/03/01 01:45:36;;;;;;;13.70;8.80;;;;;;;;;;5005215;28;20815;-67
2023/03/01 01:48:03;;;;;;;12.35;8.52;;;;;;;;;;5005140;28;20029;-67
2023/03/01 01:50:37;;;;;;;12.95;9.63;;;;;;;;;;5004863;28;20049;-67
2023/03/01 01:53:02;;;;;;;13.07;8.93;;;;;;;;;;5004941;28;20125;-67
2023/03/01 01:55:28;;;;;;;11.40;8.35;;;;;;;;;;5005772;28;20036;-66
2023/03/01 01:57:55;;;;;;;13.55;9.25;;;;;;;;;;5006424;28;20135;-67
2023/03/01 02:00:22;;;;;;;13.57;8.77;;;;;;;;;;5007396;28;20049;-67
2023/03/01 02:02:51;;;;;;;13.30;9.77;;;;;;;;;;5052061;28;20033;-67
2023/03/01 02:05:22;;;;;;;14.05;9.30;;;;;;;;;;5049405;28;20013;-67
2023/03/01 02:07:48;;;;;;;13.35;9.43;;;;;;;;;;5048511;28;20028;-67
2023/03/01 02:10:14;;;;;;;13.73;9.27;;;;;;;;;;5048601;28;20041;-67
2023/03/01 02:12:39;;;;;;;13.60;9.25;;;;;;;;;;5045203;28;20114;-68
2023/03/01 02:15:05;;;;;;;12.75;9.18;;;;;;;;;;5048112;28;20514;-67
2023/03/01 02:17:30;;;;;;;14.32;9.57;;;;;;;;;;5032614;28;20025;-67
2023/03/01 02:20:14;;;;;;;13.32;9.88;;;;;;;;;;5033497;28;20025;-67
2023/03/01 02:22:39;;;;;;;13.03;9.70;;;;;;;;;;5045893;28;20021;-67
2023/03/01 02:25:23;;;;;;;13.15;9.95;;;;;;;;;;5053322;28;20362;-66
2023/03/01 02:27:51;;;;;;;15.10;10.00;;;;;;;;;;5051965;28;20063;-66
2023/03/01 02:30:18;;;;;;;17.88;10.50;;;;;;;;;;5052977;28;20028;-67
2023/03/01 02:32:44;;;;;;;13.32;10.05;;;;;;;;;;5034877;28;20059;-67
2023/03/01 02:35:11;;;;;;;14.50;11.23;;;;;;;;;;5003089;28;20021;-67
2023/03/01 02:37:37;;;;;;;13.90;10.50;;;;;;;;;;4992801;28;20052;-68
2023/03/01 02:40:05;;;;;;;18.15;11.20;;;;;;;;;;5030550;28;20052;-67
2023/03/01 02:42:33;;;;;;;13.98;9.95;;;;;;;;;;5013099;28;20858;-67
2023/03/01 02:44:58;;;;;;;17.35;10.68;;;;;;;;;;4999721;28;20052;-66
2023/03/01 02:47:24;;;;;;;16.95;10.93;;;;;;;;;;5044058;28;20127;-67
2023/03/01 02:49:49;;;;;;;14.88;11.00;;;;;;;;;;5052437;28;20081;-67
2023/03/01 02:52:20;;;;;;;13.70;10.65;;;;;;;;;;5051823;28;20095;-67
2023/03/01 02:54:58;;;;;;;15.68;10.57;;;;;;;;;;5052173;28;20032;-67
2023/03/01 02:57:24;;;;;;;16.98;11.20;;;;;;;;;;5011219;28;20024;-67
2023/03/01 02:59:49;;;;;;;15.00;11.43;;;;;;;;;;5008172;28;20017;-67
2023/03/01 03:02:20;;;;;;;16.00;11.50;;;;;;;;;;5004061;28;20579;-67
2023/03/01 03:04:45;;;;;;;16.60;10.95;;;;;;;;;;5005196;28;20013;-67
2023/03/01 03:07:11;;;;;;;16.63;10.93;;;;;;;;;;5016876;28;20341;-66
2023/03/01 03:09:36;;;;;;;16.35;10.68;;;;;;;;;;5041504;28;20490;-66
2023/03/01 03:12:01;;;;;;;14.15;10.75;;;;;;;;;;5038752;28;20108;-66
2023/03/01 03:14:26;;;;;;;16.13;10.63;;;;;;;;;;5051961;28;20033;-66
2023/03/01 03:16:52;;;;;;;13.75;10.32;;;;;;;;;;5052173;28;20597;-66
2023/03/01 03:19:18;;;;;;;15.57;11.07;;;;;;;;;;5052033;28;20036;-66
2023/03/01 03:21:43;;;;;;;18.15;11.27;;;;;;;;;;5052302;28;20017;-66
2023/03/01 03:24:08;;;;;;;19.60;11.80;;;;;;;;;;5046039;28;20475;-67
2023/03/01 03:26:34;;;;;;;15.40;11.25;;;;;;;;;;5032292;28;20025;-66
2023/03/01 03:28:59;;;;;;;18.13;11.32;;;;;;;;;;5020140;28;20943;-66
2023/03/01 03:31:25;;;;;;;14.13;10.65;;;;;;;;;;5000550;28;20021;-66
2023/03/01 03:33:50;;;;;;;14.05;11.35;;;;;;;;;;5000727;28;20890;-66
2023/03/01 03:36:20;;;;;;;22.20;12.20;;;;;;;;;;5005150;28;20024;-66
2023/03/01 03:38:46;;;;;;;17.48;12.52;;;;;;;;;;5005778;28;20139;-66
2023/03/01 03:41:11;;;;;;;17.67;11.88;;;;;;;;;;5006027;28;20951;-67
2023/03/01 03:43:37;;;;;;;14.70;11.57;;;;;;;;;;5004382;28;20021;-66
2023/03/01 03:46:06;;;;;;;18.27;12.13;;;;;;;;;;4995828;28;20021;-66
2023/03/01 03:48:35;;;;;;;19.20;12.77;;;;;;;;;;4996271;28;20029;-67
2023/03/01 03:51:00;;;;;;;17.33;12.63;;;;;;;;;;5006825;28;20043;-66
2023/03/01 03:53:26;;;;;;;19.25;12.30;;;;;;;;;;5043597;28;20468;-66
2023/03/01 03:55:51;;;;;;;21.52;12.70;;;;;;;;;;5038833;28;20029;-66
2023/03/01 03:58:19;;;;;;;16.10;12.23;;;;;;;;;;5051604;28;20143;-66
2023/03/01 04:00:45;;;;;;;17.20;11.98;;;;;;;;;;5038494;28;20025;-66
2023/03/01 04:03:11;;;;;;;19.42;13.18;;;;;;;;;;5053333;28;20058;-66
2023/03/01 04:05:36;;;;;;;18.55;12.32;;;;;;;;;;5041794;28;20391;-65
2023/03/01 04:08:02;;;;;;;14.50;12.00;;;;;;;;;;5055007;28;20025;-66
2023/03/01 04:10:28;;;;;;;16.27;12.65;;;;;;;;;;5055078;28;20495;-66
2023/03/01 04:12:55;;;;;;;23.52;13.90;;;;;;;;;;5055507;28;20193;-67
2023/03/01 04:15:23;;;;;;;18.42;12.43;;;;;;;;;;5054883;28;20488;-66
2023/03/01 04:17:50;;;;;;;16.80;12.60;;;;;;;;;;5055019;28;20020;-66
2023/03/01 04:20:24;;;;;;;15.90;12.43;;;;;;;;;;5053376;28;20499;-67
2023/03/01 04:22:57;;;;;;;21.95;15.55;;;;;;;;;;5054282;28;20517;-67
2023/03/01 04:25:22;;;;;;;19.90;14.48;;;;;;;;;;5054060;28;20043;-66
2023/03/01 04:27:48;;;;;;;19.50;15.27;;;;;;;;;;5054409;28;20091;-66
2023/03/01 04:30:13;;;;;;;19.88;13.07;;;;;;;;;;5039283;28;20021;-66
2023/03/01 04:32:38;;;;;;;18.58;13.25;;;;;;;;;;5038391;28;20068;-65
2023/03/01 04:35:04;;;;;;;17.88;13.82;;;;;;;;;;5035694;28;20040;-66
2023/03/01 04:37:29;;;;;;;19.33;13.35;;;;;;;;;;5044385;28;20112;-67
2023/03/01 04:39:54;;;;;;;19.80;14.85;;;;;;;;;;5054386;28;20360;-66
2023/03/01 04:42:20;;;;;;;20.73;15.68;;;;;;;;;;5055019;28;20013;-66
2023/03/01 04:44:45;;;;;;;26.52;18.30;;;;;;;;;;5039447;28;20075;-66
2023/03/01 04:47:10;;;;;;;33.42;21.00;;;;;;;;;;5034967;28;20419;-66
2023/03/01 04:49:35;;;;;;;31.52;20.83;;;;;;;;;;5035154;28;20116;-66
2023/03/01 04:52:04;;;;;;;36.40;24.58;;;;;;;;;;5026429;28;20033;-65
2023/03/01 04:54:30;;;;;;;32.40;22.58;;;;;;;;;;5007209;28;20936;-66
2023/03/01 04:56:55;;;;;;;29.88;21.27;;;;;;;;;;5052702;28;20058;-65
2023/03/01 04:59:23;;;;;;;28.38;19.77;;;;;;;;;;5045323;28;20032;-65
2023/03/01 05:01:49;;;;;;;28.55;20.23;;;;;;;;;;5049590;28;20468;-66
2023/03/01 05:04:14;;;;;;;23.92;16.52;;;;;;;;;;5035466;28;20170;-66
2023/03/01 05:06:40;;;;;;;25.77;17.92;;;;;;;;;;5036560;28;20148;-66
2023/03/01 05:09:05;;;;;;;24.70;17.67;;;;;;;;;;5038504;28;20025;-66
2023/03/01 05:11:35;;;;;;;24.35;17.20;;;;;;;;;;5053715;28;20043;-66
2023/03/01 05:14:00;;;;;;;22.20;16.95;;;;;;;;;;5052978;28;20024;-66
2023/03/01 05:16:26;;;;;;;21.02;14.57;;;;;;;;;;5028158;28;20021;-66
2023/03/01 05:18:51;;;;;;;22.30;15.20;;;;;;;;;;5006917;28;20045;-66
2023/03/01 05:21:16;;;;;;;24.45;16.52;;;;;;;;;;5007142;28;20125;-66
2023/03/01 05:23:42;;;;;;;19.67;15.32;;;;;;;;;;5007843;28;20027;-66
2023/03/01 05:26:07;;;;;;;21.35;14.70;;;;;;;;;;5001301;28;20956;-66
2023/03/01 05:28:33;;;;;;;21.40;14.57;;;;;;;;;;5000792;28;20140;-66
2023/03/01 05:30:58;;;;;;;22.63;16.23;;;;;;;;;;5002640;28;20023;-66
2023/03/01 05:33:24;;;;;;;25.95;15.10;;;;;;;;;;5003749;28;20183;-65
2023/03/01 05:35:50;;;;;;;19.85;14.40;;;;;;;;;;5007308;28;20876;-66
2023/03/01 05:38:16;;;;;;;20.20;14.70;;;;;;;;;;5004185;28;20078;-66
2023/03/01 05:40:42;;;;;;;21.42;14.48;;;;;;;;;;5045666;28;20061;-66
2023/03/01 05:43:07;;;;;;;23.83;15.82;;;;;;;;;;5046770;28;20013;-66
2023/03/01 05:45:35;;;;;;;20.88;15.75;;;;;;;;;;5053284;28;20028;-66
2023/03/01 05:48:00;;;;;;;18.92;14.27;;;;;;;;;;5047771;28;20029;-65
2023/03/01 05:50:27;;;;;;;19.83;14.65;;;;;;;;;;5051411;28;20032;-65
2023/03/01 05:52:57;;;;;;;21.17;14.63;;;;;;;;;;5051192;28;20017;-65
2023/03/01 05:55:22;;;;;;;21.90;15.88;;;;;;;;;;5046802;28;20040;-65
2023/03/01 05:57:48;;;;;;;23.70;15.30;;;;;;;;;;5037689;28;20029;-65
2023/03/01 06:00:14;;;;;;;21.60;14.75;;;;;;;;;;5034109;28;20037;-65
2023/03/01 06:02:39;;;;;;;20.42;13.30;;;;;;;;;;5048602;28;20029;-65
2023/03/01 06:05:06;;;;;;;20.02;14.23;;;;;;;;;;5043941;28;20092;-66
2023/03/01 06:07:31;;;;;;;20.80;14.50;;;;;;;;;;5033952;28;20492;-65
2023/03/01 06:09:56;;;;;;;20.02;15.32;;;;;;;;;;5043414;28;20016;-66
2023/03/01 06:12:21;;;;;;;22.73;14.88;;;;;;;;;;5023447;28;20076;-66
2023/03/01 06:14:47;;;;;;;24.85;15.40;;;;;;;;;;4992931;28;20072;-66
2023/03/01 06:17:12;;;;;;;20.15;15.27;;;;;;;;;;4999726;28;20946;-67
2023/03/01 06:19:38;;;;;;;24.42;14.55;;;;;;;;;;5008743;28;20031;-65
2023/03/01 06:22:03;;;;;;;19.00;15.30;;;;;;;;;;5003134;28;20953;-65
2023/03/01 06:24:29;;;;;;;19.30;14.70;;;;;;;;;;5004187;28;20016;-65
2023/03/01 06:26:54;;;;;;;21.50;14.70;;;;;;;;;;5031722;28;20449;-66
2023/03/01 06:29:19;;;;;;;21.23;15.43;;;;;;;;;;5041849;28;20016;-65
2023/03/01 06:31:45;;;;;;;24.30;15.45;;;;;;;;;;5042702;28;20013;-65
2023/03/01 06:34:13;;;;;;;22.25;15.82;;;;;;;;;;5023034;28;20071;-65
2023/03/01 06:36:38;;;;;;;19.45;14.30;;;;;;;;;;5037571;28;20045;-65
2023/03/01 06:39:05;;;;;;;23.90;15.60;;;;;;;;;;5039123;28;20065;-65
2023/03/01 06:41:30;;;;;;;20.55;15.05;;;;;;;;;;5043679;28;20012;-65
2023/03/01 06:43:55;;;;;;;21.45;15.35;;;;;;;;;;5043105;28;20059;-65
2023/03/01 06:46:21;;;;;;;21.33;14.43;;;;;;;;;;5040391;28;20379;-65
2023/03/01 06:48:46;;;;;;;22.63;15.65;;;;;;;;;;5038783;28;20069;-65
2023/03/01 06:51:11;;;;;;;21.83;16.30;;;;;;;;;;5043594;28;20021;-65
2023/03/01 06:53:37;;;;;;;25.40;15.55;;;;;;;;;;5050250;28;20032;-65
2023/03/01 06:56:02;;;;;;;26.60;16.13;;;;;;;;;;5051752;28;20029;-65
2023/03/01 06:58:27;;;;;;;26.58;15.68;;;;;;;;;;5052268;28;20024;-65
2023/03/01 07:00:53;;;;;;;21.25;14.68;;;;;;;;;;5047685;28;20035;-65
2023/03/01 07:03:18;;;;;;;24.17;15.45;;;;;;;;;;5035862;28;20391;-65
2023/03/01 07:05:44;;;;;;;27.83;16.42;;;;;;;;;;5032883;28;20023;-65
2023/03/01 07:08:09;;;;;;;24.88;15.88;;;;;;;;;;4996548;28;20080;-66
2023/03/01 07:10:35;;;;;;;24.55;16.10;;;;;;;;;;5016164;28;20091;-65
2023/03/01 07:13:00;;;;;;;18.38;14.55;;;;;;;;;;5002883;28;20020;-65
2023/03/01 07:15:26;;;;;;;20.23;15.18;;;;;;;;;;5007366;28;20812;-65
2023/03/01 07:17:51;;;;;;;22.45;15.23;;;;;;;;;;5007643;28;20140;-65
2023/03/01 07:20:17;;;;;;;29.60;16.75;;;;;;;;;;5006450;28;20834;-65
2023/03/01 07:22:43;;;;;;;21.85;15.70;;;;;;;;;;5007299;28;20124;-65
2023/03/01 07:25:09;;;;;;;22.67;16.13;;;;;;;;;;5006880;28;20017;-65
2023/03/01 07:27:34;;;;;;;27.90;16.95;;;;;;;;;;4997411;28;20029;-65
2023/03/01 07:29:59;;;;;;;28.92;16.15;;;;;;;;;;5004226;28;20072;-65
2023/03/01 07:32:25;;;;;;;25.20;16.10;;;;;;;;;;5009501;28;20039;-65
2023/03/01 07:34:51;;;;;;;23.02;15.85;;;;;;;;;;5023901;28;20094;-65
2023/03/01 07:37:16;;;;;;;21.67;16.08;;;;;;;;;;5037725;28;20035;-65
2023/03/01 07:39:41;;;;;;;18.95;14.75;;;;;;;;;;5049927;28;20017;-64
2023/03/01 07:42:07;;;;;;;20.80;15.10;;;;;;;;;;5025547;28;20020;-65
2023/03/01 07:44:32;;;;;;;20.13;14.70;;;;;;;;;;4998913;28;21014;-65
2023/03/01 07:46:58;;;;;;;20.55;14.95;;;;;;;;;;5007597;28;20754;-65
2023/03/01 07:49:23;;;;;;;28.38;15.75;;;;;;;;;;4999232;28;20024;-65
2023/03/01 07:51:48;;;;;;;19.30;13.60;;;;;;;;;;5005534;28;20049;-65
2023/03/01 07:54:13;;;;;;;22.48;14.88;;;;;;;;;;5007753;28;20187;-65
2023/03/01 07:56:40;;;;;;;19.75;13.57;;;;;;;;;;5002181;28;20059;-65
2023/03/01 07:59:05;;;;;;;21.50;14.63;;;;;;;;;;5002834;28;20258;-65
2023/03/01 08:01:30;;;;;;;20.25;13.70;;;;;;;;;;5006481;28;20115;-64
2023/03/01 08:03:56;;;;;;;21.17;14.10;;;;;;;;;;5014008;28;20893;-65
2023/03/01 08:06:21;;;;;;;27.52;15.02;;;;;;;;;;5049773;28;20088;-64
2023/03/01 08:08:46;;;;;;;24.77;15.82;;;;;;;;;;5041852;28;20024;-65
2023/03/01 08:11:13;;;;;;;20.48;14.27;;;;;;;;;;5008319;28;20021;-64
2023/03/01 08:13:38;;;;;;;21.55;14.50;;;;;;;;;;5004359;28;20021;-65
2023/03/01 08:16:05;;;;;;;25.25;14.77;;;;;;;;;;5006884;28;20125;-64
2023/03/01 08:18:30;;;;;;;23.00;15.15;;;;;;;;;;5001756;28;20027;-65
2023/03/01 08:20:55;;;;;;;25.15;14.82;;;;;;;;;;5006343;28;20943;-65
2023/03/01 08:23:21;;;;;;;22.13;14.68;;;;;;;;;;5002177;28;20530;-65
2023/03/01 08:25:46;;;;;;;25.23;14.65;;;;;;;;;;5003896;28;20111;-66
2023/03/01 08:28:12;;;;;;;21.80;14.52;;;;;;;;;;5035968;28;20464;-64
2023/03/01 08:30:37;;;;;;;19.70;14.00;;;;;;;;;;5047599;28;20024;-64
2023/03/01 08:33:02;;;;;;;24.17;14.65;;;;;;;;;;5037186;28;20024;-65
2023/03/01 08:35:27;;;;;;;20.42;14.30;;;;;;;;;;5036484;28;20021;-66
2023/03/01 08:37:53;;;;;;;20.02;14.27;;;;;;;;;;5050281;28;20353;-66
2023/03/01 08:40:18;;;;;;;20.20;13.27;;;;;;;;;;5036633;28;20289;-64
2023/03/01 08:42:43;;;;;;;18.00;13.40;;;;;;;;;;5037225;28;20056;-66
2023/03/01 08:45:09;;;;;;;20.05;13.45;;;;;;;;;;5036260;28;20101;-65
2023/03/01 08:47:34;;;;;;;20.50;13.48;;;;;;;;;;5052089;28;20044;-65
2023/03/01 08:50:00;;;;;;;19.17;11.57;;;;;;;;;;5053616;28;20021;-65
2023/03/01 08:52:25;;;;;;;16.52;13.25;;;;;;;;;;5052808;28;20024;-65
2023/03/01 08:54:51;;;;;;;24.42;14.35;;;;;;;;;;5011376;28;20056;-65
2023/03/01 08:57:16;;;;;;;19.52;12.82;;;;;;;;;;5006228;28;20025;-65
2023/03/01 08:59:41;;;;;;;17.17;12.93;;;;;;;;;;5046071;28;20040;-66
2023/03/01 09:02:12;;;;;;;20.27;12.85;;;;;;;;;;5047856;28;20022;-66
2023/03/01 09:04:37;;;;;;;21.70;12.57;;;;;;;;;;5050998;28;20020;-66
2023/03/01 09:07:02;;;;;;;20.35;13.52;;;;;;;;;;5048716;28;20024;-65
2023/03/01 09:09:28;;;;;;;18.92;12.90;;;;;;;;;;5043383;28;20040;-65
2023/03/01 09:11:53;;;;;;;16.95;11.65;;;;;;;;;;5047621;28;20017;-66
2023/03/01 09:14:18;;;;;;;16.42;11.73;;;;;;;;;;5045334;28;20551;-66
2023/03/01 09:16:44;;;;;;;21.88;12.63;;;;;;;;;;5051098;28;20029;-66
2023/03/01 09:19:10;;;;;;;16.58;11.70;;;;;;;;;;5052352;28;20490;-66
2023/03/01 09:21:37;;;;;;;20.98;13.25;;;;;;;;;;5051734;28;20076;-66
2023/03/01 09:24:02;;;;;;;18.00;11.82;;;;;;;;;;5047879;28;20052;-66
2023/03/01 09:26:27;;;;;;;21.33;11.98;;;;;;;;;;5051866;28;20021;-66
2023/03/01 09:28:53;;;;;;;17.00;12.60;;;;;;;;;;5047496;28;20021;-66
2023/03/01 09:31:19;;;;;;;18.75;12.13;;;;;;;;;;5053305;28;20028;-67
2023/03/01 09:33:48;;;;;;;19.13;11.88;;;;;;;;;;5045332;28;20487;-67
2023/03/01 09:36:15;;;;;;;18.23;11.90;;;;;;;;;;5056410;28;20459;-67
2023/03/01 09:38:41;;;;;;;17.27;11.65;;;;;;;;;;5051295;28;20032;-67
2023/03/01 09:41:10;;;;;;;22.42;12.90;;;;;;;;;;5052559;28;20093;-67
2023/03/01 09:43:38;;;;;;;25.05;12.13;;;;;;;;;;5050762;28;20102;-71
2023/03/01 09:46:05;;;;;;;19.10;13.00;;;;;;;;;;5051734;28;20395;-68
2023/03/01 09:48:34;;;;;;;18.73;12.73;;;;;;;;;;5052367;28;20060;-67
2023/03/01 09:51:02;;;;;;;19.83;12.65;;;;;;;;;;5042642;28;20025;-68
2023/03/01 09:53:32;;;;;;;25.10;13.00;;;;;;;;;;5039809;28;20028;-68
2023/03/01 09:56:04;;;;;;;20.38;12.30;;;;;;;;;;5052240;28;20487;-68
2023/03/01 09:58:34;;;;;;;17.58;11.55;;;;;;;;;;5044494;28;20060;-68
2023/03/01 10:01:06;;;;;;;20.38;12.15;;;;;;;;;;5048755;28;20104;-68
2023/03/01 10:03:38;;;;;;;17.08;12.48;;;;;;;;;;5050606;28;20063;-68
2023/03/01 10:06:04;;;;;;;17.52;12.35;;;;;;;;;;5048305;28;20033;-68
2023/03/01 10:08:35;;;;;;;15.20;11.57;;;;;;;;;;5051109;28;20017;-67
2023/03/01 10:11:01;;;;;;;18.73;12.10;;;;;;;;;;5048704;28;20357;-67
2023/03/01 10:13:41;;;;;;;15.82;11.60;;;;;;;;;;5050993;28;20024;-67
2023/03/01 10:16:13;;;;;;;17.33;12.30;;;;;;;;;;5049845;28;20037;-68
2023/03/01 10:18:39;;;;;;;21.40;12.38;;;;;;;;;;5047463;28;20033;-69
2023/03/01 10:21:13;;;;;;;16.08;12.40;;;;;;;;;;5051218;28;20052;-69
2023/03/01 10:23:38;;;;;;;28.48;12.68;;;;;;;;;;5045189;28;20021;-66
2023/03/01 10:26:07;;;;;;;21.45;12.23;;;;;;;;;;5052760;28;20013;-66
2023/03/01 10:28:50;;;;;;;21.73;12.15;;;;;;;;;;5043385;28;20708;-67
2023/03/01 10:31:18;;;;;;;15.48;11.23;;;;;;;;;;5045299;28;20055;-68
2023/03/01 10:33:44;;;;;;;15.75;11.43;;;;;;;;;;5047272;28;20387;-67
2023/03/01 10:36:09;;;;;;;21.20;11.50;;;;;;;;;;5044709;28;20043;-67
2023/03/01 10:38:54;;;;;;;21.10;11.60;;;;;;;;;;5045970;28;20457;-67
2023/03/01 10:41:23;;;;;;;17.83;11.40;;;;;;;;;;5048235;28;20119;-68
2023/03/01 10:43:48;;;;;;;18.30;11.73;;;;;;;;;;5034403;28;20060;-67
2023/03/01 10:46:21;;;;;;;17.30;12.38;;;;;;;;;;5048299;28;20048;-69
2023/03/01 10:49:05;;;;;;;14.87;10.70;;;;;;;;;;5049458;28;20115;-67
2023/03/01 10:51:30;;;;;;;16.58;11.38;;;;;;;;;;5049007;28;20021;-68
2023/03/01 10:53:55;;;;;;;14.57;11.00;;;;;;;;;;5051143;28;20344;-68
2023/03/01 10:56:21;;;;;;;18.10;11.65;;;;;;;;;;5051843;28;20024;-68
2023/03/01 10:59:05;;;;;;;17.73;12.35;;;;;;;;;;5051863;28;20040;-68
2023/03/01 11:01:32;;;;;;;18.50;11.50;;;;;;;;;;5046941;28;20031;-68
2023/03/01 11:04:10;;;;;;;17.80;11.65;;;;;;;;;;5052140;28;20029;-68
2023/03/01 11:06:39;;;;;;;16.10;11.10;;;;;;;;;;5040606;28;20012;-68
2023/03/01 11:09:15;;;;;;;18.25;11.60;;;;;;;;;;5047616;28;20029;-68
2023/03/01 11:11:40;;;;;;;17.60;10.38;;;;;;;;;;5046254;28;20040;-68
2023/03/01 11:14:16;;;;;;;18.25;11.70;;;;;;;;;;5040876;28;20060;-68
2023/03/01 11:16:43;;;;;;;14.25;11.18;;;;;;;;;;5051093;28;20025;-68
2023/03/01 11:19:08;;;;;;;18.20;11.68;;;;;;;;;;5041466;28;20431;-68
2023/03/01 11:21:34;;;;;;;16.50;11.37;;;;;;;;;;5040357;28;20025;-69
2023/03/01 11:24:00;;;;;;;15.30;10.63;;;;;;;;;;5050401;28;20288;-69
2023/03/01 11:26:27;;;;;;;15.85;11.35;;;;;;;;;;5047645;28;20131;-69
2023/03/01 11:28:54;;;;;;;17.75;10.88;;;;;;;;;;5055072;28;20017;-69
2023/03/01 11:31:21;;;;;;;18.05;10.90;;;;;;;;;;5055610;28;20017;-69
2023/03/01 11:33:53;;;;;;;17.08;11.60;;;;;;;;;;5054709;28;20025;-69
2023/03/01 11:36:37;;;;;;;13.50;10.60;;;;;;;;;;5054591;28;20114;-69
2023/03/01 11:39:10;;;;;;;14.93;11.05;;;;;;;;;;5055064;28;20033;-69
2023/03/01 11:41:36;;;;;;;16.87;10.60;;;;;;;;;;5053432;28;20040;-70
2023/03/01 11:44:03;;;;;;;18.58;10.43;;;;;;;;;;5054496;28;20078;-70
2023/03/01 11:46:38;;;;;;;20.48;10.90;;;;;;;;;;5050992;28;20507;-69
2023/03/01 11:49:06;;;;;;;16.40;9.60;;;;;;;;;;5054481;28;20028;-69
2023/03/01 11:51:40;;;;;;;18.20;10.60;;;;;;;;;;5054225;28;20028;-70
2023/03/01 11:54:20;;;;;;;14.60;9.95;;;;;;;;;;5054120;28;20029;-69
2023/03/01 11:56:57;;;;;;;19.13;9.80;;;;;;;;;;5046261;28;20020;-69
2023/03/01 11:59:34;;;;;;;16.77;10.07;;;;;;;;;;5019190;28;20882;-70
2023/03/01 12:02:05;;;;;;;15.18;9.88;;;;;;;;;;5007905;28;20866;-69
2023/03/01 12:04:36;;;;;;;13.38;8.93;;;;;;;;;;5007185;28;20017;-69
2023/03/01 12:07:04;;;;;;;12.32;8.13;;;;;;;;;;5050160;28;20078;-69
2023/03/01 12:09:38;;;;;;;11.02;8.23;;;;;;;;;;5050453;28;20016;-68
2023/03/01 12:12:22;;;;;;;12.95;8.52;;;;;;;;;;5052435;28;20492;-69
2023/03/01 12:14:50;;;;;;;10.35;8.70;;;;;;;;;;5043547;28;20025;-68
2023/03/01 12:17:18;;;;;;;11.43;8.60;;;;;;;;;;5052431;28;20052;-69
2023/03/01 12:19:58;;;;;;;11.60;8.95;;;;;;;;;;5051318;28;20025;-69
2023/03/01 12:22:30;;;;;;;9.73;7.50;;;;;;;;;;5050207;28;20033;-69
2023/03/01 12:25:05;;;;;;;14.40;7.78;;;;;;;;;;5052253;28;20021;-69
2023/03/01 12:27:56;;;;;;;11.77;8.13;;;;;;;;;;5054283;28;20020;-69
2023/03/01 12:30:56;;;;;;;9.35;8.05;;;;;;;;;;5037917;28;20033;-69
2023/03/01 12:33:22;;;;;;;13.00;7.75;;;;;;;;;;4986701;28;20079;-70
2023/03/01 12:35:47;;;;;;;13.27;7.83;;;;;;;;;;5003319;28;20865;-70
2023/03/01 12:38:22;;;;;;;9.30;7.87;;;;;;;;;;5006872;28;20322;-69
2023/03/01 12:41:01;;;;;;;16.52;8.15;;;;;;;;;;5007595;28;20659;-70
2023/03/01 12:43:27;;;;;;;13.82;8.18;;;;;;;;;;5033555;28;20463;-70
2023/03/01 12:45:52;;;;;;;11.48;8.73;;;;;;;;;;5054378;28;20544;-70
2023/03/01 12:48:20;;;;;;;21.93;8.87;;;;;;;;;;5047490;28;20030;-70
2023/03/01 12:50:47;;;;;;;12.40;8.48;;;;;;;;;;5053313;28;20306;-69
2023/03/01 12:53:30;;;;;;;10.85;7.15;;;;;;;;;;5051333;28;20021;-69
2023/03/01 12:56:06;;;;;;;10.63;7.68;;;;;;;;;;5053609;28;20070;-70
2023/03/01 12:58:33;;;;;;;13.82;8.63;;;;;;;;;;5008218;28;20051;-70
2023/03/01 13:01:17;;;;;;;10.43;6.70;;;;;;;;;;5006773;28;20218;-69
2023/03/01 13:03:55;;;;;;;12.27;8.30;;;;;;;;;;5027436;28;20490;-69
2023/03/01 13:06:40;;;;;;;11.32;6.57;;;;;;;;;;5036284;28;20019;-68
2023/03/01 13:09:15;;;;;;;9.05;6.80;;;;;;;;;;5043862;28;20036;-68
2023/03/01 13:11:43;;;;;;;8.82;7.15;;;;;;;;;;5052732;28;20467;-69
2023/03/01 13:14:21;;;;;;;9.20;7.60;;;;;;;;;;5050888;28;20055;-68
2023/03/01 13:16:48;;;;;;;10.07;7.75;;;;;;;;;;5053635;28;20112;-68
2023/03/01 13:19:17;;;;;;;10.68;6.82;;;;;;;;;;5047379;28;20033;-68
2023/03/01 13:21:43;;;;;;;9.32;6.15;;;;;;;;;;5045487;28;20057;-69
2023/03/01 13:24:27;;;;;;;10.32;6.28;;;;;;;;;;5049802;28;20020;-71
2023/03/01 13:27:22;;;;;;;9.73;6.88;;;;;;;;;;5045396;28;20025;-71
2023/03/01 13:29:47;;;;;;;10.27;6.00;;;;;;;;;;5039918;28;20041;-71
2023/03/01 13:32:25;;;;;;;11.83;8.13;;;;;;;;;;5049101;28;20023;-69
2023/03/01 13:34:55;;;;;;;12.38;7.65;;;;;;;;;;5052078;28;20283;-69
2023/03/01 13:37:21;;;;;;;8.45;7.40;;;;;;;;;;5048251;28;20032;-70
2023/03/01 13:39:47;;;;;;;11.65;7.13;;;;;;;;;;5052101;28;20024;-69
2023/03/01 13:42:32;;;;;;;9.35;6.88;;;;;;;;;;5050067;28;20021;-69
2023/03/01 13:44:58;;;;;;;11.90;7.63;;;;;;;;;;5054448;28;20371;-69
2023/03/01 13:47:24;;;;;;;13.13;7.63;;;;;;;;;;5051272;28;20037;-69
2023/03/01 13:49:59;;;;;;;9.75;6.70;;;;;;;;;;5044738;28;20022;-68
2023/03/01 13:52:44;;;;;;;8.23;6.90;;;;;;;;;;5050628;28;20021;-68
2023/03/01 13:55:42;;;;;;;11.07;6.43;;;;;;;;;;5007475;28;20013;-69
2023/03/01 13:58:19;;;;;;;10.85;7.15;;;;;;;;;;4996398;28;20037;-69
2023/03/01 14:00:44;;;;;;;10.85;7.03;;;;;;;;;;5004853;28;20132;-68
2023/03/01 14:03:12;;;;;;;10.40;6.53;;;;;;;;;;5006132;28;20017;-67
2023/03/01 14:05:37;;;;;;;11.13;6.43;;;;;;;;;;5004720;28;20092;-69
2023/03/01 14:08:04;;;;;;;12.00;7.65;;;;;;;;;;5004783;28;20033;-69
2023/03/01 14:10:35;;;;;;;12.45;7.30;;;;;;;;;;5045032;28;20025;-69
2023/03/01 14:13:03;;;;;;;10.23;5.63;;;;;;;;;;5021513;28;20926;-69
2023/03/01 14:15:38;;;;;;;10.90;5.57;;;;;;;;;;5006507;28;20024;-68
2023/03/01 14:18:39;;;;;;;8.93;6.07;;;;;;;;;;5003121;28;20023;-69
2023/03/01 14:21:08;;;;;;;7.68;6.28;;;;;;;;;;5055655;28;20542;-68
2023/03/01 14:23:35;;;;;;;11.68;6.50;;;;;;;;;;5055307;28;20033;-68
2023/03/01 14:26:00;;;;;;;13.07;5.93;;;;;;;;;;5052104;28;20048;-68